createdAt,value
2022-09-14T00:01:14.419Z,97121.41
2022-09-14T00:03:41.764Z,97113.53
2022-09-14T00:06:12.023Z,97115.88
2022-09-14T00:08:39.274Z,97108.41
2022-09-14T00:11:12.166Z,97117.69
2022-09-14T00:13:41.450Z,97110.06
2022-09-14T00:16:13.518Z,97112.97
2022-09-14T00:18:41.900Z,97121.50
2022-09-14T00:21:11.295Z,97112.34
2022-09-14T00:23:40.224Z,97110.53
2022-09-14T00:26:10.320Z,97112.63
2022-09-14T00:28:39.579Z,97114.06
2022-09-14T00:31:07.593Z,97109.16
2022-09-14T00:33:34.516Z,97110.97
2022-09-14T00:36:09.861Z,97121.25
2022-09-14T00:38:37.771Z,97120.59
2022-09-14T00:41:08.093Z,97119.59
2022-09-14T00:43:53.420Z,97112.72
2022-09-14T00:46:20.456Z,97124.47
2022-09-14T00:48:48.105Z,97132.66
2022-09-14T00:51:19.486Z,97124.06
2022-09-14T00:53:46.901Z,97132.25
2022-09-14T00:56:15.112Z,97131.84
2022-09-14T00:58:45.251Z,97130.59
2022-09-14T01:01:12.507Z,97125.47
2022-09-14T01:03:39.774Z,97126.75
2022-09-14T01:06:26.459Z,97119.94
2022-09-14T01:09:11.769Z,97113.31
2022-09-14T01:11:51.964Z,97113.31
2022-09-14T01:14:25.529Z,97114.97
2022-09-14T01:17:07.710Z,97116.94
2022-09-14T01:19:53.257Z,97124.81
2022-09-14T01:22:26.497Z,97120.13
2022-09-14T01:25:02.298Z,97127.03
2022-09-14T01:27:41.876Z,97118.47
2022-09-14T01:30:15.084Z,97114.03
2022-09-14T01:33:11.128Z,97116.81
2022-09-14T01:35:46.629Z,97111.97
2022-09-14T01:38:35.035Z,97114.19
2022-09-14T01:41:06.651Z,97110.59
2022-09-14T01:43:36.800Z,97107.56
2022-09-14T01:46:12.539Z,97106.31
2022-09-14T01:48:45.581Z,97113.50
2022-09-14T01:51:17.573Z,97116.13
2022-09-14T01:53:50.275Z,97107.28
2022-09-14T01:56:25.202Z,97107.00
2022-09-14T01:59:16.713Z,97108.13
2022-09-14T02:01:54.936Z,97113.81
2022-09-14T02:04:39.310Z,97115.31
2022-09-14T02:07:07.015Z,97115.56
2022-09-14T02:09:34.251Z,97119.47
2022-09-14T02:12:01.361Z,97113.06
2022-09-14T02:14:28.719Z,97112.50
2022-09-14T02:16:56.077Z,97113.66
2022-09-14T02:19:24.730Z,97107.84
2022-09-14T02:21:52.180Z,97097.31
2022-09-14T02:24:19.463Z,97109.34
2022-09-14T02:26:49.934Z,97114.47
2022-09-14T02:29:17.057Z,97117.53
2022-09-14T02:31:50.903Z,97116.94
2022-09-14T02:34:36.537Z,97119.28
2022-09-14T02:37:22.137Z,97112.66
2022-09-14T02:41:23.288Z,97110.59
2022-09-14T02:45:08.673Z,97120.56
2022-09-14T02:48:08.349Z,97114.34
2022-09-14T02:50:58.606Z,97103.41
2022-09-14T02:53:54.596Z,97109.75
2022-09-14T02:56:22.425Z,97104.06
2022-09-14T02:58:50.416Z,97104.78
2022-09-14T03:01:19.676Z,97094.53
2022-09-14T03:03:47.531Z,97098.13
2022-09-14T03:06:15.461Z,97094.81
2022-09-14T03:09:02.140Z,97084.56
2022-09-14T03:11:29.620Z,97085.41
2022-09-14T03:13:57.199Z,97085.53
2022-09-14T03:16:24.810Z,97083.47
2022-09-14T03:18:52.358Z,97086.50
2022-09-14T03:21:20.346Z,97082.78
2022-09-14T03:23:55.762Z,97082.78
2022-09-14T03:26:25.358Z,97085.66
2022-09-14T03:29:01.955Z,97085.41
2022-09-14T03:31:29.322Z,97086.75
2022-09-14T03:33:58.702Z,97082.38
2022-09-14T03:36:28.682Z,97086.91
2022-09-14T03:38:57.908Z,97091.19
2022-09-14T03:41:25.768Z,97088.16
2022-09-14T03:43:52.656Z,97100.88
2022-09-14T03:46:22.962Z,97097.28
2022-09-14T03:48:54.366Z,97103.09
2022-09-14T03:51:21.614Z,97089.25
2022-09-14T03:53:50.132Z,97111.78
2022-09-14T03:56:20.421Z,97109.84
2022-09-14T03:58:51.593Z,97109.84
2022-09-14T04:01:22.122Z,97109.97
2022-09-14T04:03:51.047Z,97115.53
2022-09-14T04:06:20.238Z,97102.81
2022-09-14T04:08:50.479Z,97104.03
2022-09-14T04:11:21.225Z,97097.25
2022-09-14T04:13:49.241Z,97107.75
2022-09-14T04:16:25.785Z,97112.75
2022-09-14T04:18:54.320Z,97117.06
2022-09-14T04:21:24.695Z,97114.84
2022-09-14T04:24:14.765Z,97118.81
2022-09-14T04:26:58.808Z,97114.81
2022-09-14T04:29:27.942Z,97118.69
2022-09-14T04:32:05.793Z,97112.97
2022-09-14T04:34:34.749Z,97131.00
2022-09-14T04:37:03.976Z,97128.09
2022-09-14T04:40:27.935Z,97133.91
2022-09-14T04:43:26.050Z,97123.84
2022-09-14T04:46:21.163Z,97115.09
2022-09-14T04:49:19.687Z,97125.78
2022-09-14T04:51:48.539Z,97130.78
2022-09-14T04:54:28.852Z,97132.69
2022-09-14T04:57:08.049Z,97128.56
2022-09-14T04:59:41.103Z,97134.13
2022-09-14T05:10:38.490Z,97122.22
2022-09-14T05:13:35.784Z,97121.94
2022-09-14T05:19:18.761Z,97121.38
2022-09-14T05:25:24.391Z,97119.22
2022-09-14T05:27:56.577Z,97124.13
2022-09-14T05:30:24.484Z,97117.78
2022-09-14T05:32:54.366Z,97129.38
2022-09-14T05:35:25.710Z,97136.84
2022-09-14T05:37:53.953Z,97139.16
2022-09-14T05:40:20.978Z,97134.88
2022-09-14T05:42:48.297Z,97129.81
2022-09-14T05:45:15.472Z,97124.91
2022-09-14T05:47:45.182Z,97135.44
2022-09-14T05:50:12.269Z,97132.56
2022-09-14T05:52:39.167Z,97137.03
2022-09-14T05:55:09.262Z,97131.94
2022-09-14T05:57:40.290Z,97135.44
2022-09-14T06:00:08.694Z,97146.34
2022-09-14T06:02:35.929Z,97140.50
2022-09-14T06:05:03.305Z,97142.75
2022-09-14T06:07:30.353Z,97139.97
2022-09-14T06:09:57.975Z,97142.81
2022-09-14T06:12:27.315Z,97147.94
2022-09-14T06:14:54.299Z,97140.63
2022-09-14T06:17:21.873Z,97146.03
2022-09-14T06:19:49.221Z,97141.78
2022-09-14T06:22:17.002Z,97141.22
2022-09-14T06:24:44.530Z,97136.88
2022-09-14T06:27:15.996Z,97140.38
2022-09-14T06:29:43.167Z,97136.47
2022-09-14T06:32:10.931Z,97147.03
2022-09-14T06:34:37.797Z,97141.56
2022-09-14T06:37:05.371Z,97135.84
2022-09-14T06:39:33.131Z,97134.53
2022-09-14T06:43:31.333Z,97141.56
2022-09-14T06:46:03.829Z,97130.41
2022-09-14T06:48:35.640Z,97124.31
2022-09-14T06:51:18.042Z,97124.22
2022-09-14T06:53:46.472Z,97131.91
2022-09-14T06:56:14.412Z,97121.19
2022-09-14T06:58:42.432Z,97129.00
2022-09-14T07:01:16.410Z,97125.03
2022-09-14T07:03:44.937Z,97122.97
2022-09-14T07:06:17.609Z,97113.66
2022-09-14T07:08:45.079Z,97125.22
2022-09-14T07:11:13.519Z,97119.94
2022-09-14T07:27:29.030Z,97111.09
2022-09-14T07:29:56.340Z,97108.59
2022-09-14T07:32:23.265Z,97100.47
2022-09-14T07:34:50.500Z,97102.91
2022-09-14T07:37:17.650Z,97101.47
2022-09-14T07:39:44.763Z,97101.25
2022-09-14T07:42:11.925Z,97102.56
2022-09-14T07:44:38.995Z,97103.03
2022-09-14T07:47:06.671Z,97108.19
2022-09-14T07:49:33.970Z,97098.81
2022-09-14T07:52:01.072Z,97091.34
2022-09-14T07:54:28.360Z,97090.66
2022-09-14T07:56:56.061Z,97093.25
2022-09-14T07:59:41.533Z,97100.34
2022-09-14T08:02:10.804Z,97106.06
2022-09-14T08:04:41.100Z,97103.09
2022-09-14T08:07:08.952Z,97094.63
2022-09-14T08:09:36.090Z,97099.91
2022-09-14T08:12:05.729Z,97088.31
2022-09-14T08:14:32.804Z,97084.53
2022-09-14T08:17:01.470Z,97093.50
2022-09-14T08:19:28.726Z,97090.06
2022-09-14T08:21:55.813Z,97094.66
2022-09-14T08:24:23.585Z,97096.09
2022-09-14T08:26:53.898Z,97101.66
2022-09-14T08:29:22.179Z,97098.72
2022-09-14T08:31:52.599Z,97079.63
2022-09-14T08:34:30.511Z,97080.28
2022-09-14T08:36:58.015Z,97078.19
2022-09-14T08:39:25.685Z,97082.59
2022-09-14T08:41:59.885Z,97063.59
2022-09-14T08:44:47.573Z,97064.91
2022-09-14T08:47:31.755Z,97063.75
2022-09-14T08:50:10.749Z,97051.81
2022-09-14T08:52:44.706Z,97055.91
2022-09-14T08:55:15.229Z,97063.75
2022-09-14T08:57:48.603Z,97060.47
2022-09-14T09:00:38.292Z,97053.44
2022-09-14T09:04:00.006Z,97054.25
2022-09-14T09:06:39.017Z,97049.66
2022-09-14T09:09:32.953Z,97044.09
2022-09-14T09:12:09.685Z,97034.63
2022-09-14T09:14:44.582Z,97031.50
2022-09-14T09:17:30.904Z,97034.75
2022-09-14T09:20:07.894Z,97036.25
2022-09-14T09:22:52.703Z,97032.63
2022-09-14T09:25:34.623Z,97029.53
2022-09-14T09:28:10.337Z,97031.19
2022-09-14T09:30:46.005Z,97034.75
2022-09-14T09:33:19.450Z,97028.13
2022-09-14T09:35:54.883Z,97021.69
2022-09-14T09:38:27.928Z,97026.00
2022-09-14T09:41:02.325Z,97030.44
2022-09-14T09:43:48.388Z,97018.41
2022-09-14T09:46:17.993Z,97019.44
2022-09-14T09:48:50.104Z,97019.53
2022-09-14T09:51:38.307Z,97022.81
2022-09-14T09:54:19.880Z,97018.78
2022-09-14T09:57:01.772Z,97021.72
2022-09-14T09:59:52.292Z,97020.75
2022-09-14T10:02:31.845Z,97020.16
2022-09-14T10:05:52.707Z,97016.09
2022-09-14T10:08:20.382Z,97018.31
2022-09-14T10:10:48.211Z,97020.97
2022-09-14T10:13:38.844Z,97009.84
2022-09-14T10:16:32.158Z,97009.53
2022-09-14T10:19:04.056Z,97011.38
2022-09-14T10:21:32.361Z,97012.78
2022-09-14T10:24:22.836Z,97014.31
2022-09-14T10:26:50.663Z,97006.78
2022-09-14T10:29:43.566Z,97021.06
2022-09-14T10:32:24.171Z,97014.25
2022-09-14T10:34:51.847Z,97024.94
2022-09-14T10:38:03.050Z,97018.09
2022-09-14T10:40:40.342Z,97018.22
2022-09-14T10:43:13.403Z,97021.59
2022-09-14T10:45:48.264Z,97007.41
2022-09-14T10:49:10.665Z,97017.53
2022-09-14T10:51:53.349Z,97025.50
2022-09-14T10:54:58.602Z,97026.38
2022-09-14T10:57:41.858Z,97014.38
2022-09-14T11:00:19.878Z,97001.88
2022-09-14T11:03:02.218Z,96994.75
2022-09-14T11:06:01.883Z,96987.06
2022-09-14T11:08:33.972Z,96993.16
2022-09-14T11:11:24.484Z,96991.09
2022-09-14T11:14:10.091Z,96986.09
2022-09-14T11:16:49.851Z,96988.03
2022-09-14T11:19:47.446Z,96978.06
2022-09-14T11:22:20.354Z,96984.06
2022-09-14T11:24:58.409Z,96975.38
2022-09-14T11:27:45.122Z,96970.41
2022-09-14T11:30:18.621Z,96969.66
2022-09-14T11:32:52.129Z,96971.16
2022-09-14T11:35:28.092Z,96960.63
2022-09-14T11:38:07.689Z,96959.84
2022-09-14T11:40:47.098Z,96945.38
2022-09-14T11:43:50.975Z,96961.59
2022-09-14T11:47:00.490Z,96955.19
2022-09-14T11:49:34.741Z,96952.00
2022-09-14T11:52:10.635Z,96943.47
2022-09-14T11:54:44.662Z,96936.97
2022-09-14T11:57:21.014Z,96936.94
2022-09-14T11:59:52.278Z,96934.25
2022-09-14T12:02:25.557Z,96929.84
2022-09-14T12:05:08.592Z,96918.50
2022-09-14T12:07:47.499Z,96918.00
2022-09-14T12:10:14.819Z,96910.97
2022-09-14T12:12:43.336Z,96911.09
2022-09-14T12:15:34.618Z,96909.22
2022-09-14T12:18:08.327Z,96915.16
2022-09-14T12:20:41.038Z,96907.00
2022-09-14T12:23:29.794Z,96908.63
2022-09-14T12:26:12.677Z,96894.03
2022-09-14T12:28:48.906Z,96899.47
2022-09-14T12:31:57.808Z,96889.53
2022-09-14T12:34:36.452Z,96899.00
2022-09-14T12:37:25.575Z,96899.59
2022-09-14T12:40:12.787Z,96905.00
2022-09-14T12:42:40.004Z,96889.88
2022-09-14T12:45:50.132Z,96894.28
2022-09-14T12:48:45.872Z,96909.41
2022-09-14T12:51:26.393Z,96907.22
2022-09-14T12:54:12.147Z,96899.59
2022-09-14T12:56:57.441Z,96902.59
2022-09-14T12:59:51.341Z,96903.19
2022-09-14T13:02:24.169Z,96898.06
2022-09-14T13:04:58.856Z,96896.34
2022-09-14T13:07:33.645Z,96905.78
2022-09-14T13:10:02.921Z,96904.31
2022-09-14T13:12:44.072Z,96903.63
2022-09-14T13:15:38.745Z,96908.94
2022-09-14T13:18:18.511Z,96917.88
2022-09-14T13:20:54.681Z,96921.97
2022-09-14T13:23:30.921Z,96922.19
2022-09-14T13:26:09.272Z,96919.75
2022-09-14T13:28:50.280Z,96922.38
2022-09-14T13:31:33.082Z,96917.50
2022-09-14T13:34:00.835Z,96924.53
2022-09-14T13:36:31.931Z,96921.25
2022-09-14T13:39:01.796Z,96917.44
2022-09-14T13:41:35.096Z,96926.66
2022-09-14T13:44:02.642Z,96921.22
2022-09-14T13:46:30.032Z,96911.50
2022-09-14T13:48:57.124Z,96908.81
2022-09-14T13:51:27.222Z,96909.03
2022-09-14T13:54:00.729Z,96913.94
2022-09-14T13:56:33.016Z,96910.44
2022-09-14T13:59:12.056Z,96915.97
2022-09-14T14:01:43.686Z,96907.06
2022-09-14T14:04:41.007Z,96909.84
2022-09-14T14:07:14.634Z,96908.22
2022-09-14T14:09:48.046Z,96906.25
2022-09-14T14:12:33.285Z,96898.22
2022-09-14T14:15:29.529Z,96907.44
2022-09-14T14:17:59.791Z,96915.09
2022-09-14T14:20:29.627Z,96913.44
2022-09-14T14:22:58.901Z,96911.28
2022-09-14T14:25:50.957Z,96911.78
2022-09-14T14:28:30.315Z,96913.31
2022-09-14T14:31:00.956Z,96913.53
2022-09-14T14:33:37.172Z,96922.38
2022-09-14T14:36:15.479Z,96914.22
2022-09-14T14:39:08.182Z,96912.50
2022-09-14T14:41:35.817Z,96908.63
2022-09-14T14:44:03.591Z,96905.22
2022-09-14T14:46:31.047Z,96898.63
2022-09-14T14:48:58.654Z,96894.72
2022-09-14T14:51:30.348Z,96895.66
2022-09-14T14:54:03.400Z,96884.22
2022-09-14T14:56:34.665Z,96895.53
2022-09-14T14:59:02.501Z,96896.41
2022-09-14T15:01:33.184Z,96892.19
2022-09-14T15:04:00.512Z,96890.19
2022-09-14T15:06:28.434Z,96900.03
2022-09-14T15:08:56.974Z,96897.25
2022-09-14T15:11:24.398Z,96894.03
2022-09-14T15:13:51.538Z,96894.19
2022-09-14T15:16:18.904Z,96899.00
2022-09-14T15:18:46.841Z,96893.88
2022-09-14T15:21:22.960Z,96895.09
2022-09-14T15:23:50.683Z,96893.72
2022-09-14T15:26:26.239Z,96889.28
2022-09-14T15:28:53.717Z,96887.25
2022-09-14T15:31:20.970Z,96878.72
2022-09-14T15:33:48.156Z,96881.31
2022-09-14T15:36:36.217Z,96881.25
2022-09-14T15:39:04.613Z,96872.72
2022-09-14T15:41:31.813Z,96868.28
2022-09-14T15:43:59.847Z,96875.66
2022-09-14T15:46:26.865Z,96879.91
2022-09-14T15:48:53.992Z,96882.44
2022-09-14T15:51:21.228Z,96887.72
2022-09-14T15:53:48.731Z,96888.84
2022-09-14T15:56:16.754Z,96888.91
2022-09-14T15:58:47.976Z,96890.44
2022-09-14T16:01:19.191Z,96887.13
2022-09-14T16:03:48.930Z,96873.28
2022-09-14T16:06:19.007Z,96880.53
2022-09-14T16:08:48.991Z,96877.00
2022-09-14T16:11:19.147Z,96876.34
2022-09-14T16:13:46.262Z,96878.31
2022-09-14T16:16:16.056Z,96873.75
2022-09-14T16:18:47.530Z,96877.56
2022-09-14T16:21:22.582Z,96879.94
2022-09-14T16:23:54.608Z,96868.06
2022-09-14T16:26:41.830Z,96872.09
2022-09-14T16:32:08.326Z,96871.84
2022-09-14T16:34:36.924Z,96866.13
2022-09-14T16:37:04.728Z,96861.81
2022-09-14T16:39:35.268Z,96863.50
2022-09-14T16:42:08.885Z,96864.56
2022-09-14T16:44:38.982Z,96866.25
2022-09-14T16:47:06.112Z,96878.56
2022-09-14T16:49:33.657Z,96875.50
2022-09-14T16:52:01.065Z,96886.78
2022-09-14T16:54:30.024Z,96877.16
2022-09-14T16:56:58.619Z,96878.97
2022-09-14T16:59:26.564Z,96876.88
2022-09-14T17:01:55.297Z,96873.19
2022-09-14T17:04:24.301Z,96875.25
2022-09-14T17:06:52.410Z,96869.91
2022-09-14T17:09:26.360Z,96880.94
2022-09-14T17:11:54.690Z,96874.16
2022-09-14T17:14:26.818Z,96877.00
2022-09-14T17:16:57.085Z,96881.25
2022-09-14T17:19:25.268Z,96878.78
2022-09-14T17:22:04.515Z,96874.16
2022-09-14T17:24:31.863Z,96873.72
2022-09-14T17:27:02.304Z,96884.97
2022-09-14T17:29:31.670Z,96883.72
2022-09-14T17:31:59.317Z,96888.81
2022-09-14T17:34:26.419Z,96880.59
2022-09-14T17:36:54.133Z,96892.03
2022-09-14T17:39:21.177Z,96886.41
2022-09-14T17:41:48.299Z,96886.94
2022-09-14T17:44:16.312Z,96894.06
2022-09-14T17:46:51.962Z,96891.34
2022-09-14T17:49:22.086Z,96901.72
2022-09-14T17:51:49.714Z,96907.16
2022-09-14T17:54:18.050Z,96910.84
2022-09-14T17:56:45.666Z,96909.97
2022-09-14T17:59:14.599Z,96905.81
2022-09-14T18:01:42.360Z,96911.91
2022-09-14T18:04:11.664Z,96909.06
2022-09-14T18:06:49.195Z,96913.13
2022-09-14T18:09:22.736Z,96915.72
2022-09-14T18:11:51.331Z,96906.72
2022-09-14T18:14:19.390Z,96908.88
2022-09-14T18:17:00.212Z,96914.59
2022-09-14T18:19:40.149Z,96903.66
2022-09-14T18:22:08.295Z,96909.31
2022-09-14T18:24:36.407Z,96905.13
2022-09-14T18:27:04.038Z,96906.13
2022-09-14T18:29:34.073Z,96904.75
2022-09-14T18:32:01.599Z,96898.44
2022-09-14T18:34:29.559Z,96903.75
2022-09-14T18:37:01.486Z,96906.88
2022-09-14T18:39:28.803Z,96902.88
2022-09-14T18:41:56.641Z,96901.31
2022-09-14T18:44:23.996Z,96903.22
2022-09-14T18:46:51.951Z,96906.19
2022-09-14T18:49:19.527Z,96904.53
2022-09-14T18:51:47.267Z,96902.03
2022-09-14T18:54:15.263Z,96911.03
2022-09-14T18:56:42.504Z,96904.34
2022-09-14T18:59:16.511Z,96911.88
2022-09-14T19:01:44.346Z,96909.84
2022-09-14T19:04:15.311Z,96906.38
2022-09-14T19:06:44.494Z,96901.69
2022-09-14T19:09:12.384Z,96901.59
2022-09-14T19:11:40.890Z,96904.63
2022-09-14T19:14:11.170Z,96899.69
2022-09-14T19:16:40.078Z,96898.69
2022-09-14T19:19:09.133Z,96893.81
2022-09-14T19:21:48.031Z,96884.03
2022-09-14T19:24:18.793Z,96884.56
2022-09-14T19:26:51.979Z,96884.56
2022-09-14T19:29:22.662Z,96877.63
2022-09-14T19:31:54.357Z,96875.78
2022-09-14T19:34:24.033Z,96873.31
2022-09-14T19:36:55.213Z,96879.72
2022-09-14T19:39:24.096Z,96884.22
2022-09-14T19:41:54.210Z,96884.13
2022-09-14T19:44:23.698Z,96875.16
2022-09-14T19:46:51.582Z,96882.13
2022-09-14T19:49:22.307Z,96874.69
2022-09-14T19:51:50.754Z,96874.50
2022-09-14T19:54:18.731Z,96872.03
2022-09-14T19:57:00.998Z,96866.53
2022-09-14T19:59:28.247Z,96863.97
2022-09-14T20:01:55.716Z,96861.44
2022-09-14T20:04:24.091Z,96872.66
2022-09-14T20:06:51.979Z,96874.03
2022-09-14T20:09:22.296Z,96874.03
2022-09-14T20:11:51.722Z,96872.75
2022-09-14T20:14:27.310Z,96880.91
2022-09-14T20:17:00.885Z,96887.75
2022-09-14T20:19:32.949Z,96892.72
2022-09-14T20:22:00.470Z,96888.00
2022-09-14T20:24:29.256Z,96895.97
2022-09-14T20:26:59.783Z,96896.16
2022-09-14T20:29:31.585Z,96893.84
2022-09-14T20:31:59.360Z,96890.38
2022-09-14T20:34:26.508Z,96891.88
2022-09-14T20:36:55.905Z,96887.31
2022-09-14T20:39:24.471Z,96888.69
2022-09-14T20:41:52.123Z,96894.97
2022-09-14T20:44:23.541Z,96894.97
2022-09-14T20:46:54.651Z,96898.97
2022-09-14T20:49:23.821Z,96902.63
2022-09-14T20:51:54.892Z,96911.22
2022-09-14T20:54:22.709Z,96909.78
2022-09-14T20:56:49.947Z,96901.34
2022-09-14T20:59:19.790Z,96903.69
2022-09-14T21:01:52.362Z,96901.78
2022-09-14T21:04:22.513Z,96893.81
2022-09-14T21:06:54.843Z,96890.69
2022-09-14T21:09:24.936Z,96892.22
2022-09-14T21:11:53.115Z,96906.66
2022-09-14T21:14:21.574Z,96894.25
2022-09-14T21:16:55.588Z,96892.63
2022-09-14T21:19:29.771Z,96894.56
2022-09-14T21:21:57.016Z,96886.63
2022-09-14T21:24:25.750Z,96886.03
2022-09-14T21:26:52.916Z,96886.03
2022-09-14T21:29:24.971Z,96885.00
2022-09-14T21:31:53.015Z,96890.72
2022-09-14T21:34:22.809Z,96888.72
2022-09-14T21:36:56.557Z,96883.91
2022-09-14T21:39:25.508Z,96887.09
2022-09-14T21:41:58.864Z,96877.78
2022-09-14T21:44:37.789Z,96883.16
2022-09-14T21:47:05.582Z,96887.16
2022-09-14T21:49:35.355Z,96878.94
2022-09-14T21:52:08.957Z,96872.34
2022-09-14T21:54:36.233Z,96865.84
2022-09-14T21:57:03.379Z,96863.38
2022-09-14T21:59:34.208Z,96869.69
2022-09-14T22:02:01.464Z,96864.19
2022-09-14T22:04:28.876Z,96853.25
2022-09-14T22:06:57.577Z,96860.66
2022-09-14T22:09:27.319Z,96851.09
2022-09-14T22:11:58.259Z,96852.78
2022-09-14T22:14:27.663Z,96842.19
2022-09-14T22:16:55.443Z,96833.56
2022-09-14T22:19:28.531Z,96836.22
2022-09-14T22:22:01.967Z,96839.00
2022-09-14T22:24:52.152Z,96837.34
2022-09-14T22:27:22.480Z,96822.63
2022-09-14T22:29:49.891Z,96829.56
2022-09-14T22:32:17.047Z,96807.97
2022-09-14T22:34:49.360Z,96810.13
2022-09-14T22:37:20.217Z,96802.72
2022-09-14T22:39:50.252Z,96806.88
2022-09-14T22:42:17.654Z,96817.97
2022-09-14T22:55:32.820Z,96813.56
2022-09-14T22:58:04.386Z,96805.13
2022-09-14T23:00:33.015Z,96813.56
2022-09-14T23:03:00.197Z,96815.06
2022-09-14T23:05:27.166Z,96820.97
2022-09-14T23:07:55.381Z,96815.06
2022-09-14T23:10:23.020Z,96824.28
2022-09-14T23:12:50.649Z,96827.25
2022-09-14T23:15:17.570Z,96821.81
2022-09-14T23:17:47.670Z,96835.50
2022-09-14T23:20:17.103Z,96834.84
2022-09-14T23:22:44.058Z,96836.34
2022-09-14T23:25:10.993Z,96846.75
2022-09-14T23:27:38.433Z,96841.44
2022-09-14T23:30:06.126Z,96839.81
2022-09-14T23:32:33.631Z,96846.09
2022-09-14T23:35:01.398Z,96842.13
2022-09-14T23:37:28.407Z,96848.06
2022-09-14T23:39:55.961Z,96848.91
2022-09-14T23:42:23.165Z,96862.31
2022-09-14T23:44:50.311Z,96844.78
2022-09-14T23:47:18.809Z,96846.78
2022-09-14T23:49:46.009Z,96848.25
2022-09-14T23:52:13.906Z,96849.41
2022-09-14T23:54:41.279Z,96845.78
2022-09-14T23:57:08.422Z,96845.31
2022-09-14T23:59:35.381Z,96837.06
